sensor_id;sensor_type;location;lat;lon;timestamp;P1;durP1;ratioP1;P2;durP2;ratioP2
58581;SDS011;44361;51.476;5.700;2023-12-29T00:01:14;8.23;;;1.05;;
58581;SDS011;44361;51.476;5.700;2023-12-29T00:03:41;5.15;;;1.23;;
58581;SDS011;44361;51.476;5.700;2023-12-29T00:06:07;7.53;;;1.30;;
58581;SDS011;44361;51.476;5.700;2023-12-29T00:08:32;10.90;;;1.40;;
58581;SDS011;44361;51.476;5.700;2023-12-29T00:10:59;6.47;;;1.35;;
58581;SDS011;44361;51.476;5.700;2023-12-29T00:13:24;11.57;;;1.27;;
58581;SDS011;44361;51.476;5.700;2023-12-29T00:15:53;4.80;;;0.90;;
58581;SDS011;44361;51.476;5.700;2023-12-29T00:18:20;10.70;;;1.77;;
58581;SDS011;44361;51.476;5.700;2023-12-29T00:20:46;5.05;;;0.98;;
58581;SDS011;44361;51.476;5.700;2023-12-29T00:23:12;9.13;;;1.65;;
58581;SDS011;44361;51.476;5.700;2023-12-29T00:25:38;5.88;;;1.23;;
58581;SDS011;44361;51.476;5.700;2023-12-29T00:28:04;10.77;;;1.90;;
58581;SDS011;44361;51.476;5.700;2023-12-29T00:30:30;7.00;;;1.73;;
58581;SDS011;44361;51.476;5.700;2023-12-29T00:32:56;9.02;;;1.60;;
58581;SDS011;44361;51.476;5.700;2023-12-29T00:35:21;5.05;;;1.17;;
58581;SDS011;44361;51.476;5.700;2023-12-29T00:37:47;9.32;;;1.05;;
58581;SDS011;44361;51.476;5.700;2023-12-29T00:40:12;10.20;;;1.60;;
58581;SDS011;44361;51.476;5.700;2023-12-29T00:42:38;10.52;;;1.13;;
58581;SDS011;44361;51.476;5.700;2023-12-29T00:45:05;10.85;;;1.25;;
58581;SDS011;44361;51.476;5.700;2023-12-29T00:47:31;8.73;;;1.30;;
58581;SDS011;44361;51.476;5.700;2023-12-29T00:49:57;12.82;;;1.38;;
58581;SDS011;44361;51.476;5.700;2023-12-29T00:52:22;5.80;;;1.20;;
58581;SDS011;44361;51.476;5.700;2023-12-29T00:54:48;11.40;;;1.70;;
58581;SDS011;44361;51.476;5.700;2023-12-29T00:57:14;6.95;;;1.10;;
58581;SDS011;44361;51.476;5.700;2023-12-29T00:59:41;5.22;;;1.00;;
58581;SDS011;44361;51.476;5.700;2023-12-29T01:02:06;7.07;;;1.70;;
58581;SDS011;44361;51.476;5.700;2023-12-29T01:04:33;11.73;;;1.35;;
58581;SDS011;44361;51.476;5.700;2023-12-29T01:06:58;12.15;;;2.30;;
58581;SDS011;44361;51.476;5.700;2023-12-29T01:09:25;10.48;;;1.45;;
58581;SDS011;44361;51.476;5.700;2023-12-29T01:11:51;12.43;;;1.67;;
58581;SDS011;44361;51.476;5.700;2023-12-29T01:14:17;9.93;;;1.52;;
58581;SDS011;44361;51.476;5.700;2023-12-29T01:16:42;6.05;;;1.17;;
58581;SDS011;44361;51.476;5.700;2023-12-29T01:19:08;7.18;;;1.30;;
58581;SDS011;44361;51.476;5.700;2023-12-29T01:21:33;10.27;;;1.40;;
58581;SDS011;44361;51.476;5.700;2023-12-29T01:24:02;13.93;;;1.60;;
58581;SDS011;44361;51.476;5.700;2023-12-29T01:26:32;7.43;;;2.03;;
58581;SDS011;44361;51.476;5.700;2023-12-29T01:29:06;11.00;;;1.48;;
58581;SDS011;44361;51.476;5.700;2023-12-29T01:31:32;5.93;;;1.52;;
58581;SDS011;44361;51.476;5.700;2023-12-29T01:33:57;8.13;;;2.03;;
58581;SDS011;44361;51.476;5.700;2023-12-29T01:36:23;12.30;;;1.95;;
58581;SDS011;44361;51.476;5.700;2023-12-29T01:38:49;18.08;;;2.50;;
58581;SDS011;44361;51.476;5.700;2023-12-29T01:41:14;15.38;;;1.92;;
58581;SDS011;44361;51.476;5.700;2023-12-29T01:46:28;12.20;;;2.60;;
58581;SDS011;44361;51.476;5.700;2023-12-29T01:48:54;10.80;;;1.65;;
58581;SDS011;44361;51.476;5.700;2023-12-29T01:51:21;14.55;;;1.92;;
58581;SDS011;44361;51.476;5.700;2023-12-29T01:53:50;10.00;;;2.00;;
58581;SDS011;44361;51.476;5.700;2023-12-29T01:56:20;7.75;;;1.92;;
58581;SDS011;44361;51.476;5.700;2023-12-29T01:58:47;7.65;;;1.55;;
58581;SDS011;44361;51.476;5.700;2023-12-29T02:01:14;10.75;;;1.80;;
58581;SDS011;44361;51.476;5.700;2023-12-29T02:03:40;13.65;;;1.73;;
58581;SDS011;44361;51.476;5.700;2023-12-29T02:06:06;11.18;;;2.05;;
58581;SDS011;44361;51.476;5.700;2023-12-29T02:08:32;8.93;;;2.25;;
58581;SDS011;44361;51.476;5.700;2023-12-29T02:10:58;16.00;;;2.35;;
58581;SDS011;44361;51.476;5.700;2023-12-29T02:13:24;12.85;;;2.58;;
58581;SDS011;44361;51.476;5.700;2023-12-29T02:15:53;11.30;;;2.60;;
58581;SDS011;44361;51.476;5.700;2023-12-29T02:18:24;10.23;;;2.08;;
58581;SDS011;44361;51.476;5.700;2023-12-29T02:20:53;16.45;;;2.50;;
58581;SDS011;44361;51.476;5.700;2023-12-29T02:23:19;16.63;;;2.50;;
58581;SDS011;44361;51.476;5.700;2023-12-29T02:25:44;11.93;;;1.45;;
58581;SDS011;44361;51.476;5.700;2023-12-29T02:28:25;20.40;;;2.40;;
58581;SDS011;44361;51.476;5.700;2023-12-29T02:31:12;14.75;;;2.13;;
58581;SDS011;44361;51.476;5.700;2023-12-29T02:33:41;13.82;;;2.22;;
58581;SDS011;44361;51.476;5.700;2023-12-29T02:36:09;23.40;;;2.85;;
58581;SDS011;44361;51.476;5.700;2023-12-29T02:38:37;14.80;;;2.08;;
58581;SDS011;44361;51.476;5.700;2023-12-29T02:41:04;11.38;;;1.83;;
58581;SDS011;44361;51.476;5.700;2023-12-29T02:43:33;14.75;;;2.13;;
58581;SDS011;44361;51.476;5.700;2023-12-29T02:45:58;14.57;;;3.10;;
58581;SDS011;44361;51.476;5.700;2023-12-29T02:48:24;9.65;;;1.52;;
58581;SDS011;44361;51.476;5.700;2023-12-29T02:50:50;12.65;;;1.95;;
58581;SDS011;44361;51.476;5.700;2023-12-29T02:53:16;13.75;;;2.13;;
58581;SDS011;44361;51.476;5.700;2023-12-29T02:55:41;14.75;;;1.70;;
58581;SDS011;44361;51.476;5.700;2023-12-29T02:58:08;8.93;;;1.58;;
58581;SDS011;44361;51.476;5.700;2023-12-29T03:00:34;6.95;;;1.17;;
58581;SDS011;44361;51.476;5.700;2023-12-29T03:02:59;11.75;;;1.63;;
58581;SDS011;44361;51.476;5.700;2023-12-29T03:05:25;9.88;;;1.73;;
58581;SDS011;44361;51.476;5.700;2023-12-29T03:07:50;15.13;;;1.65;;
58581;SDS011;44361;51.476;5.700;2023-12-29T03:10:16;12.32;;;1.58;;
58581;SDS011;44361;51.476;5.700;2023-12-29T03:12:42;9.10;;;1.33;;
58581;SDS011;44361;51.476;5.700;2023-12-29T03:15:08;10.60;;;1.80;;
58581;SDS011;44361;51.476;5.700;2023-12-29T03:17:33;9.45;;;1.90;;
58581;SDS011;44361;51.476;5.700;2023-12-29T03:19:59;13.98;;;2.13;;
58581;SDS011;44361;51.476;5.700;2023-12-29T03:22:25;7.80;;;1.30;;
58581;SDS011;44361;51.476;5.700;2023-12-29T03:24:51;8.60;;;1.65;;
58581;SDS011;44361;51.476;5.700;2023-12-29T03:27:16;7.03;;;1.13;;
58581;SDS011;44361;51.476;5.700;2023-12-29T03:29:42;10.68;;;1.45;;
58581;SDS011;44361;51.476;5.700;2023-12-29T03:32:07;9.00;;;1.40;;
58581;SDS011;44361;51.476;5.700;2023-12-29T03:34:33;10.98;;;1.50;;
58581;SDS011;44361;51.476;5.700;2023-12-29T03:36:59;9.85;;;1.63;;
58581;SDS011;44361;51.476;5.700;2023-12-29T03:39:24;9.82;;;1.55;;
58581;SDS011;44361;51.476;5.700;2023-12-29T03:41:50;9.75;;;1.35;;
58581;SDS011;44361;51.476;5.700;2023-12-29T03:44:15;17.67;;;1.60;;
58581;SDS011;44361;51.476;5.700;2023-12-29T03:46:42;12.65;;;1.50;;
58581;SDS011;44361;51.476;5.700;2023-12-29T03:49:08;10.23;;;1.02;;
58581;SDS011;44361;51.476;5.700;2023-12-29T03:51:34;14.98;;;2.10;;
58581;SDS011;44361;51.476;5.700;2023-12-29T03:53:59;12.05;;;1.40;;
58581;SDS011;44361;51.476;5.700;2023-12-29T03:56:26;12.38;;;1.55;;
58581;SDS011;44361;51.476;5.700;2023-12-29T03:58:51;9.05;;;1.30;;
58581;SDS011;44361;51.476;5.700;2023-12-29T04:01:17;6.28;;;1.27;;
58581;SDS011;44361;51.476;5.700;2023-12-29T04:03:43;10.18;;;1.27;;
58581;SDS011;44361;51.476;5.700;2023-12-29T04:06:09;8.75;;;1.83;;
58581;SDS011;44361;51.476;5.700;2023-12-29T04:08:35;9.57;;;1.27;;
58581;SDS011;44361;51.476;5.700;2023-12-29T04:11:02;10.35;;;1.40;;
58581;SDS011;44361;51.476;5.700;2023-12-29T04:13:28;9.80;;;1.50;;
58581;SDS011;44361;51.476;5.700;2023-12-29T04:15:54;10.93;;;1.65;;
58581;SDS011;44361;51.476;5.700;2023-12-29T04:18:20;6.65;;;1.20;;
58581;SDS011;44361;51.476;5.700;2023-12-29T04:20:47;9.65;;;1.13;;
58581;SDS011;44361;51.476;5.700;2023-12-29T04:23:12;8.10;;;1.35;;
58581;SDS011;44361;51.476;5.700;2023-12-29T04:25:38;10.85;;;1.73;;
58581;SDS011;44361;51.476;5.700;2023-12-29T04:28:04;9.32;;;1.27;;
58581;SDS011;44361;51.476;5.700;2023-12-29T04:30:29;11.73;;;1.40;;
58581;SDS011;44361;51.476;5.700;2023-12-29T04:32:55;11.73;;;2.03;;
58581;SDS011;44361;51.476;5.700;2023-12-29T04:35:21;12.40;;;2.15;;
58581;SDS011;44361;51.476;5.700;2023-12-29T04:37:46;9.02;;;1.25;;
58581;SDS011;44361;51.476;5.700;2023-12-29T04:40:12;15.40;;;1.67;;
58581;SDS011;44361;51.476;5.700;2023-12-29T04:42:38;11.32;;;1.35;;
58581;SDS011;44361;51.476;5.700;2023-12-29T04:45:04;7.18;;;1.15;;
58581;SDS011;44361;51.476;5.700;2023-12-29T04:47:30;7.47;;;1.42;;
58581;SDS011;44361;51.476;5.700;2023-12-29T04:49:56;12.57;;;1.52;;
58581;SDS011;44361;51.476;5.700;2023-12-29T04:52:22;10.20;;;1.95;;
58581;SDS011;44361;51.476;5.700;2023-12-29T04:54:47;8.60;;;2.25;;
58581;SDS011;44361;51.476;5.700;2023-12-29T04:57:13;10.40;;;1.73;;
58581;SDS011;44361;51.476;5.700;2023-12-29T04:59:38;9.85;;;1.38;;
58581;SDS011;44361;51.476;5.700;2023-12-29T05:02:04;8.60;;;1.50;;
58581;SDS011;44361;51.476;5.700;2023-12-29T05:04:30;9.38;;;1.55;;
58581;SDS011;44361;51.476;5.700;2023-12-29T05:06:55;11.32;;;1.70;;
58581;SDS011;44361;51.476;5.700;2023-12-29T05:09:21;10.32;;;1.25;;
58581;SDS011;44361;51.476;5.700;2023-12-29T05:11:47;8.18;;;1.33;;
58581;SDS011;44361;51.476;5.700;2023-12-29T05:14:12;13.02;;;1.52;;
58581;SDS011;44361;51.476;5.700;2023-12-29T05:16:38;14.65;;;1.70;;
58581;SDS011;44361;51.476;5.700;2023-12-29T05:19:04;12.75;;;1.95;;
58581;SDS011;44361;51.476;5.700;2023-12-29T05:21:29;11.35;;;1.60;;
58581;SDS011;44361;51.476;5.700;2023-12-29T05:23:56;7.35;;;1.65;;
58581;SDS011;44361;51.476;5.700;2023-12-29T05:26:21;9.20;;;1.65;;
58581;SDS011;44361;51.476;5.700;2023-12-29T05:28:47;11.48;;;1.67;;
58581;SDS011;44361;51.476;5.700;2023-12-29T05:31:12;13.45;;;2.28;;
58581;SDS011;44361;51.476;5.700;2023-12-29T05:33:38;9.90;;;1.42;;
58581;SDS011;44361;51.476;5.700;2023-12-29T05:36:07;11.82;;;1.60;;
58581;SDS011;44361;51.476;5.700;2023-12-29T05:38:34;12.82;;;1.75;;
58581;SDS011;44361;51.476;5.700;2023-12-29T05:41:00;11.30;;;1.30;;
58581;SDS011;44361;51.476;5.700;2023-12-29T05:43:33;12.05;;;1.75;;
58581;SDS011;44361;51.476;5.700;2023-12-29T05:45:59;11.35;;;1.20;;
58581;SDS011;44361;51.476;5.700;2023-12-29T05:48:26;11.43;;;1.63;;
58581;SDS011;44361;51.476;5.700;2023-12-29T05:50:52;12.15;;;1.92;;
58581;SDS011;44361;51.476;5.700;2023-12-29T05:53:18;13.52;;;1.23;;
58581;SDS011;44361;51.476;5.700;2023-12-29T05:55:43;10.38;;;1.42;;
58581;SDS011;44361;51.476;5.700;2023-12-29T05:58:10;11.55;;;1.90;;
58581;SDS011;44361;51.476;5.700;2023-12-29T06:00:36;12.23;;;1.65;;
58581;SDS011;44361;51.476;5.700;2023-12-29T06:03:02;9.57;;;1.83;;
58581;SDS011;44361;51.476;5.700;2023-12-29T06:05:31;13.45;;;1.73;;
58581;SDS011;44361;51.476;5.700;2023-12-29T06:07:57;7.45;;;1.20;;
58581;SDS011;44361;51.476;5.700;2023-12-29T06:10:23;9.60;;;0.98;;
58581;SDS011;44361;51.476;5.700;2023-12-29T06:12:49;10.18;;;1.60;;
58581;SDS011;44361;51.476;5.700;2023-12-29T06:15:15;10.52;;;1.88;;
58581;SDS011;44361;51.476;5.700;2023-12-29T06:17:41;19.70;;;1.73;;
58581;SDS011;44361;51.476;5.700;2023-12-29T06:20:07;8.45;;;1.60;;
58581;SDS011;44361;51.476;5.700;2023-12-29T06:22:39;6.05;;;1.42;;
58581;SDS011;44361;51.476;5.700;2023-12-29T06:25:08;16.35;;;1.75;;
58581;SDS011;44361;51.476;5.700;2023-12-29T06:27:35;12.07;;;1.50;;
58581;SDS011;44361;51.476;5.700;2023-12-29T06:30:04;11.15;;;1.55;;
58581;SDS011;44361;51.476;5.700;2023-12-29T06:32:31;11.02;;;1.50;;
58581;SDS011;44361;51.476;5.700;2023-12-29T06:34:56;4.07;;;1.02;;
58581;SDS011;44361;51.476;5.700;2023-12-29T06:37:22;7.47;;;1.55;;
58581;SDS011;44361;51.476;5.700;2023-12-29T06:39:47;5.55;;;1.30;;
58581;SDS011;44361;51.476;5.700;2023-12-29T06:42:13;12.55;;;1.70;;
58581;SDS011;44361;51.476;5.700;2023-12-29T06:44:39;11.80;;;1.50;;
58581;SDS011;44361;51.476;5.700;2023-12-29T06:47:04;12.13;;;1.60;;
58581;SDS011;44361;51.476;5.700;2023-12-29T06:49:31;10.38;;;1.23;;
58581;SDS011;44361;51.476;5.700;2023-12-29T06:52:00;13.77;;;1.50;;
58581;SDS011;44361;51.476;5.700;2023-12-29T06:54:26;6.20;;;1.40;;
58581;SDS011;44361;51.476;5.700;2023-12-29T06:56:52;11.98;;;1.50;;
58581;SDS011;44361;51.476;5.700;2023-12-29T06:59:18;8.15;;;0.98;;
58581;SDS011;44361;51.476;5.700;2023-12-29T07:01:45;8.98;;;1.52;;
58581;SDS011;44361;51.476;5.700;2023-12-29T07:04:11;8.18;;;1.58;;
58581;SDS011;44361;51.476;5.700;2023-12-29T07:06:37;7.90;;;1.52;;
58581;SDS011;44361;51.476;5.700;2023-12-29T07:09:03;13.85;;;1.38;;
58581;SDS011;44361;51.476;5.700;2023-12-29T07:11:29;8.23;;;1.55;;
58581;SDS011;44361;51.476;5.700;2023-12-29T07:13:54;11.48;;;2.33;;
58581;SDS011;44361;51.476;5.700;2023-12-29T07:16:20;10.93;;;1.65;;
58581;SDS011;44361;51.476;5.700;2023-12-29T07:18:46;7.45;;;1.35;;
58581;SDS011;44361;51.476;5.700;2023-12-29T07:21:12;16.20;;;1.75;;
58581;SDS011;44361;51.476;5.700;2023-12-29T07:23:38;11.50;;;2.50;;
58581;SDS011;44361;51.476;5.700;2023-12-29T07:26:05;9.77;;;2.00;;
58581;SDS011;44361;51.476;5.700;2023-12-29T07:28:34;10.65;;;2.25;;
58581;SDS011;44361;51.476;5.700;2023-12-29T07:31:00;13.38;;;2.00;;
58581;SDS011;44361;51.476;5.700;2023-12-29T07:33:26;8.80;;;2.10;;
58581;SDS011;44361;51.476;5.700;2023-12-29T07:35:51;9.15;;;1.92;;
58581;SDS011;44361;51.476;5.700;2023-12-29T07:38:17;12.27;;;2.05;;
58581;SDS011;44361;51.476;5.700;2023-12-29T07:40:43;5.15;;;1.70;;
58581;SDS011;44361;51.476;5.700;2023-12-29T07:43:09;9.40;;;1.67;;
58581;SDS011;44361;51.476;5.700;2023-12-29T07:45:34;11.95;;;1.88;;
58581;SDS011;44361;51.476;5.700;2023-12-29T07:48:03;7.68;;;1.70;;
58581;SDS011;44361;51.476;5.700;2023-12-29T07:50:29;7.63;;;1.70;;
58581;SDS011;44361;51.476;5.700;2023-12-29T07:52:55;11.85;;;1.80;;
58581;SDS011;44361;51.476;5.700;2023-12-29T07:55:21;7.28;;;1.70;;
58581;SDS011;44361;51.476;5.700;2023-12-29T07:57:46;5.80;;;1.48;;
58581;SDS011;44361;51.476;5.700;2023-12-29T08:00:16;9.05;;;1.73;;
58581;SDS011;44361;51.476;5.700;2023-12-29T08:02:41;9.32;;;1.80;;
58581;SDS011;44361;51.476;5.700;2023-12-29T08:05:07;8.88;;;1.30;;
58581;SDS011;44361;51.476;5.700;2023-12-29T08:07:36;8.63;;;1.90;;
58581;SDS011;44361;51.476;5.700;2023-12-29T08:10:05;7.95;;;1.45;;
58581;SDS011;44361;51.476;5.700;2023-12-29T08:12:31;6.60;;;1.30;;
58581;SDS011;44361;51.476;5.700;2023-12-29T08:14:58;6.93;;;1.65;;
58581;SDS011;44361;51.476;5.700;2023-12-29T08:17:24;7.43;;;1.27;;
58581;SDS011;44361;51.476;5.700;2023-12-29T08:19:50;7.60;;;1.00;;
58581;SDS011;44361;51.476;5.700;2023-12-29T08:22:16;12.02;;;1.27;;
58581;SDS011;44361;51.476;5.700;2023-12-29T08:24:41;6.78;;;1.30;;
58581;SDS011;44361;51.476;5.700;2023-12-29T08:27:08;4.05;;;1.40;;
58581;SDS011;44361;51.476;5.700;2023-12-29T08:29:35;8.82;;;1.20;;
58581;SDS011;44361;51.476;5.700;2023-12-29T08:32:01;4.07;;;0.98;;
58581;SDS011;44361;51.476;5.700;2023-12-29T08:34:27;5.70;;;1.40;;
58581;SDS011;44361;51.476;5.700;2023-12-29T08:36:52;6.90;;;1.00;;
58581;SDS011;44361;51.476;5.700;2023-12-29T08:39:18;5.68;;;1.17;;
58581;SDS011;44361;51.476;5.700;2023-12-29T08:41:44;5.60;;;1.10;;
58581;SDS011;44361;51.476;5.700;2023-12-29T08:44:09;3.72;;;1.08;;
58581;SDS011;44361;51.476;5.700;2023-12-29T08:46:35;5.60;;;0.88;;
58581;SDS011;44361;51.476;5.700;2023-12-29T08:49:01;6.40;;;0.90;;
58581;SDS011;44361;51.476;5.700;2023-12-29T08:51:26;4.32;;;1.10;;
58581;SDS011;44361;51.476;5.700;2023-12-29T08:53:52;5.38;;;0.90;;
58581;SDS011;44361;51.476;5.700;2023-12-29T08:56:18;2.92;;;0.82;;
58581;SDS011;44361;51.476;5.700;2023-12-29T08:58:43;3.10;;;0.85;;
58581;SDS011;44361;51.476;5.700;2023-12-29T09:01:09;3.72;;;0.60;;
58581;SDS011;44361;51.476;5.700;2023-12-29T09:03:34;5.93;;;0.80;;
58581;SDS011;44361;51.476;5.700;2023-12-29T09:06:00;4.25;;;0.98;;
58581;SDS011;44361;51.476;5.700;2023-12-29T09:08:26;1.83;;;0.50;;
58581;SDS011;44361;51.476;5.700;2023-12-29T09:10:52;5.43;;;0.60;;
58581;SDS011;44361;51.476;5.700;2023-12-29T09:13:17;6.85;;;0.88;;
58581;SDS011;44361;51.476;5.700;2023-12-29T09:15:47;3.17;;;0.88;;
58581;SDS011;44361;51.476;5.700;2023-12-29T09:18:13;3.72;;;0.70;;
58581;SDS011;44361;51.476;5.700;2023-12-29T09:20:39;4.75;;;0.65;;
58581;SDS011;44361;51.476;5.700;2023-12-29T09:23:04;1.50;;;0.50;;
58581;SDS011;44361;51.476;5.700;2023-12-29T09:25:30;3.33;;;0.52;;
58581;SDS011;44361;51.476;5.700;2023-12-29T09:27:55;5.15;;;0.77;;
58581;SDS011;44361;51.476;5.700;2023-12-29T09:30:21;2.97;;;0.70;;
58581;SDS011;44361;51.476;5.700;2023-12-29T09:32:47;3.40;;;0.50;;
58581;SDS011;44361;51.476;5.700;2023-12-29T09:35:12;2.53;;;0.70;;
58581;SDS011;44361;51.476;5.700;2023-12-29T09:37:38;2.47;;;0.60;;
58581;SDS011;44361;51.476;5.700;2023-12-29T09:40:04;2.63;;;0.50;;
58581;SDS011;44361;51.476;5.700;2023-12-29T09:42:30;3.67;;;0.52;;
58581;SDS011;44361;51.476;5.700;2023-12-29T09:44:56;4.65;;;0.57;;
58581;SDS011;44361;51.476;5.700;2023-12-29T09:47:25;3.75;;;0.80;;
58581;SDS011;44361;51.476;5.700;2023-12-29T09:49:52;4.15;;;0.75;;
58581;SDS011;44361;51.476;5.700;2023-12-29T09:52:18;2.38;;;0.77;;
58581;SDS011;44361;51.476;5.700;2023-12-29T09:54:46;3.92;;;0.60;;
58581;SDS011;44361;51.476;5.700;2023-12-29T09:57:13;4.28;;;0.90;;
58581;SDS011;44361;51.476;5.700;2023-12-29T09:59:39;4.63;;;0.95;;
58581;SDS011;44361;51.476;5.700;2023-12-29T10:02:15;3.35;;;0.50;;
58581;SDS011;44361;51.476;5.700;2023-12-29T10:04:41;4.63;;;0.93;;
58581;SDS011;44361;51.476;5.700;2023-12-29T10:07:06;2.20;;;0.80;;
58581;SDS011;44361;51.476;5.700;2023-12-29T10:09:36;2.15;;;0.43;;
58581;SDS011;44361;51.476;5.700;2023-12-29T10:12:04;2.78;;;0.55;;
58581;SDS011;44361;51.476;5.700;2023-12-29T10:14:41;1.38;;;0.70;;
58581;SDS011;44361;51.476;5.700;2023-12-29T10:20:33;3.15;;;0.77;;
58581;SDS011;44361;51.476;5.700;2023-12-29T10:23:11;1.95;;;0.50;;
58581;SDS011;44361;51.476;5.700;2023-12-29T10:25:43;4.57;;;0.40;;
58581;SDS011;44361;51.476;5.700;2023-12-29T10:28:11;3.40;;;0.40;;
58581;SDS011;44361;51.476;5.700;2023-12-29T10:30:38;1.05;;;0.55;;
58581;SDS011;44361;51.476;5.700;2023-12-29T10:33:04;1.95;;;0.40;;
58581;SDS011;44361;51.476;5.700;2023-12-29T10:35:30;4.55;;;0.50;;
58581;SDS011;44361;51.476;5.700;2023-12-29T10:38:11;3.15;;;0.52;;
58581;SDS011;44361;51.476;5.700;2023-12-29T10:40:37;9.63;;;2.38;;
58581;SDS011;44361;51.476;5.700;2023-12-29T10:43:03;6.07;;;1.80;;
58581;SDS011;44361;51.476;5.700;2023-12-29T10:45:33;2.88;;;0.73;;
58581;SDS011;44361;51.476;5.700;2023-12-29T10:47:59;3.20;;;0.50;;
58581;SDS011;44361;51.476;5.700;2023-12-29T10:50:25;3.25;;;0.50;;
58581;SDS011;44361;51.476;5.700;2023-12-29T10:52:52;2.38;;;0.73;;
58581;SDS011;44361;51.476;5.700;2023-12-29T10:55:36;5.83;;;0.70;;
58581;SDS011;44361;51.476;5.700;2023-12-29T10:58:01;2.92;;;0.60;;
58581;SDS011;44361;51.476;5.700;2023-12-29T11:00:30;5.95;;;1.70;;
58581;SDS011;44361;51.476;5.700;2023-12-29T11:02:57;3.80;;;0.77;;
58581;SDS011;44361;51.476;5.700;2023-12-29T11:05:26;7.10;;;1.00;;
58581;SDS011;44361;51.476;5.700;2023-12-29T11:07:53;3.50;;;0.70;;
58581;SDS011;44361;51.476;5.700;2023-12-29T11:10:20;6.50;;;1.50;;
58581;SDS011;44361;51.476;5.700;2023-12-29T11:12:46;10.90;;;1.63;;
58581;SDS011;44361;51.476;5.700;2023-12-29T11:15:13;6.15;;;2.58;;
58581;SDS011;44361;51.476;5.700;2023-12-29T11:17:41;4.97;;;1.40;;
58581;SDS011;44361;51.476;5.700;2023-12-29T11:20:14;4.55;;;1.30;;
58581;SDS011;44361;51.476;5.700;2023-12-29T11:22:41;6.35;;;2.50;;
58581;SDS011;44361;51.476;5.700;2023-12-29T11:25:08;6.15;;;1.70;;
58581;SDS011;44361;51.476;5.700;2023-12-29T11:27:35;8.55;;;1.17;;
58581;SDS011;44361;51.476;5.700;2023-12-29T11:30:02;7.00;;;1.90;;
58581;SDS011;44361;51.476;5.700;2023-12-29T11:35:26;5.80;;;0.70;;
58581;SDS011;44361;51.476;5.700;2023-12-29T11:40:42;6.10;;;1.00;;
58581;SDS011;44361;51.476;5.700;2023-12-29T11:43:22;4.30;;;0.73;;
58581;SDS011;44361;51.476;5.700;2023-12-29T11:45:49;3.42;;;0.80;;
58581;SDS011;44361;51.476;5.700;2023-12-29T11:48:53;7.97;;;0.70;;
58581;SDS011;44361;51.476;5.700;2023-12-29T11:51:33;8.80;;;1.13;;
58581;SDS011;44361;51.476;5.700;2023-12-29T11:54:00;3.78;;;0.70;;
58581;SDS011;44361;51.476;5.700;2023-12-29T11:56:31;6.22;;;0.95;;
58581;SDS011;44361;51.476;5.700;2023-12-29T12:01:57;4.15;;;0.80;;
58581;SDS011;44361;51.476;5.700;2023-12-29T12:09:49;4.03;;;0.73;;
58581;SDS011;44361;51.476;5.700;2023-12-29T12:15:03;4.30;;;0.90;;
58581;SDS011;44361;51.476;5.700;2023-12-29T12:17:50;6.32;;;1.38;;
58581;SDS011;44361;51.476;5.700;2023-12-29T12:20:15;6.40;;;1.90;;
58581;SDS011;44361;51.476;5.700;2023-12-29T12:22:41;7.55;;;1.20;;
58581;SDS011;44361;51.476;5.700;2023-12-29T12:25:08;9.18;;;1.50;;
58581;SDS011;44361;51.476;5.700;2023-12-29T12:27:37;6.53;;;1.20;;
58581;SDS011;44361;51.476;5.700;2023-12-29T12:30:03;5.85;;;1.13;;
58581;SDS011;44361;51.476;5.700;2023-12-29T12:32:29;5.85;;;1.02;;
58581;SDS011;44361;51.476;5.700;2023-12-29T12:34:56;9.45;;;1.95;;
58581;SDS011;44361;51.476;5.700;2023-12-29T12:37:26;7.70;;;1.60;;
58581;SDS011;44361;51.476;5.700;2023-12-29T12:39:53;4.20;;;1.10;;
58581;SDS011;44361;51.476;5.700;2023-12-29T12:42:19;8.15;;;1.25;;
58581;SDS011;44361;51.476;5.700;2023-12-29T12:45:11;4.28;;;1.00;;
58581;SDS011;44361;51.476;5.700;2023-12-29T12:47:42;9.02;;;1.10;;
58581;SDS011;44361;51.476;5.700;2023-12-29T12:50:10;5.97;;;0.95;;
58581;SDS011;44361;51.476;5.700;2023-12-29T12:52:37;4.28;;;1.20;;
58581;SDS011;44361;51.476;5.700;2023-12-29T12:55:03;7.35;;;1.25;;
58581;SDS011;44361;51.476;5.700;2023-12-29T12:57:33;9.60;;;1.70;;
58581;SDS011;44361;51.476;5.700;2023-12-29T12:59:59;7.20;;;1.73;;
58581;SDS011;44361;51.476;5.700;2023-12-29T13:02:26;6.35;;;1.60;;
58581;SDS011;44361;51.476;5.700;2023-12-29T13:04:53;7.47;;;1.50;;
58581;SDS011;44361;51.476;5.700;2023-12-29T13:07:19;8.25;;;1.65;;
58581;SDS011;44361;51.476;5.700;2023-12-29T13:09:45;9.45;;;1.88;;
58581;SDS011;44361;51.476;5.700;2023-12-29T13:12:13;5.68;;;2.08;;
58581;SDS011;44361;51.476;5.700;2023-12-29T13:14:41;7.57;;;2.15;;
58581;SDS011;44361;51.476;5.700;2023-12-29T13:17:07;11.35;;;2.22;;
58581;SDS011;44361;51.476;5.700;2023-12-29T13:19:45;11.23;;;2.20;;
58581;SDS011;44361;51.476;5.700;2023-12-29T13:22:11;14.93;;;5.55;;
58581;SDS011;44361;51.476;5.700;2023-12-29T13:24:43;7.22;;;2.60;;
58581;SDS011;44361;51.476;5.700;2023-12-29T13:27:10;5.63;;;1.77;;
58581;SDS011;44361;51.476;5.700;2023-12-29T13:29:36;7.10;;;2.50;;
58581;SDS011;44361;51.476;5.700;2023-12-29T13:32:14;5.70;;;1.50;;
58581;SDS011;44361;51.476;5.700;2023-12-29T13:37:36;6.97;;;1.40;;
58581;SDS011;44361;51.476;5.700;2023-12-29T13:40:24;6.10;;;1.73;;
58581;SDS011;44361;51.476;5.700;2023-12-29T13:42:53;8.98;;;1.50;;
58581;SDS011;44361;51.476;5.700;2023-12-29T13:45:23;5.00;;;1.15;;
58581;SDS011;44361;51.476;5.700;2023-12-29T13:47:49;8.50;;;1.73;;
58581;SDS011;44361;51.476;5.700;2023-12-29T13:50:16;7.57;;;1.35;;
58581;SDS011;44361;51.476;5.700;2023-12-29T13:52:42;8.73;;;1.67;;
58581;SDS011;44361;51.476;5.700;2023-12-29T13:55:08;9.15;;;1.25;;
58581;SDS011;44361;51.476;5.700;2023-12-29T13:57:33;4.55;;;1.10;;
58581;SDS011;44361;51.476;5.700;2023-12-29T14:00:16;2.17;;;0.57;;
58581;SDS011;44361;51.476;5.700;2023-12-29T14:02:47;6.38;;;0.80;;
58581;SDS011;44361;51.476;5.700;2023-12-29T14:08:40;5.20;;;0.70;;
58581;SDS011;44361;51.476;5.700;2023-12-29T14:11:10;2.08;;;0.50;;
58581;SDS011;44361;51.476;5.700;2023-12-29T14:13:40;3.33;;;0.85;;
58581;SDS011;44361;51.476;5.700;2023-12-29T14:16:07;3.17;;;0.93;;
58581;SDS011;44361;51.476;5.700;2023-12-29T14:20:58;4.25;;;0.68;;
58581;SDS011;44361;51.476;5.700;2023-12-29T14:23:24;6.05;;;1.10;;
58581;SDS011;44361;51.476;5.700;2023-12-29T14:25:50;2.55;;;0.60;;
58581;SDS011;44361;51.476;5.700;2023-12-29T14:30:41;2.33;;;0.60;;
58581;SDS011;44361;51.476;5.700;2023-12-29T14:33:07;2.15;;;0.60;;
58581;SDS011;44361;51.476;5.700;2023-12-29T14:35:33;3.78;;;0.60;;
58581;SDS011;44361;51.476;5.700;2023-12-29T14:37:59;2.92;;;0.40;;
58581;SDS011;44361;51.476;5.700;2023-12-29T14:40:24;2.72;;;0.82;;
58581;SDS011;44361;51.476;5.700;2023-12-29T14:42:50;6.05;;;0.60;;
58581;SDS011;44361;51.476;5.700;2023-12-29T14:45:16;2.67;;;0.50;;
58581;SDS011;44361;51.476;5.700;2023-12-29T14:47:41;2.28;;;0.50;;
58581;SDS011;44361;51.476;5.700;2023-12-29T14:50:07;3.30;;;1.02;;
58581;SDS011;44361;51.476;5.700;2023-12-29T14:52:33;2.22;;;0.57;;
58581;SDS011;44361;51.476;5.700;2023-12-29T14:54:58;2.97;;;0.77;;
58581;SDS011;44361;51.476;5.700;2023-12-29T14:57:24;4.53;;;0.60;;
58581;SDS011;44361;51.476;5.700;2023-12-29T14:59:49;2.83;;;0.50;;
58581;SDS011;44361;51.476;5.700;2023-12-29T15:02:15;1.65;;;0.65;;
58581;SDS011;44361;51.476;5.700;2023-12-29T15:04:40;5.40;;;1.05;;
58581;SDS011;44361;51.476;5.700;2023-12-29T15:07:06;2.25;;;1.30;;
58581;SDS011;44361;51.476;5.700;2023-12-29T15:09:32;3.30;;;0.63;;
58581;SDS011;44361;51.476;5.700;2023-12-29T15:12:00;4.32;;;1.00;;
58581;SDS011;44361;51.476;5.700;2023-12-29T15:14:27;2.65;;;0.63;;
58581;SDS011;44361;51.476;5.700;2023-12-29T15:16:52;6.25;;;2.00;;